createdAt,value
2017-07-06T00:02:12.630Z,21.91
2017-07-06T00:04:41.486Z,21.87
2017-07-06T00:07:10.586Z,21.88
2017-07-06T00:09:39.676Z,21.88
2017-07-06T00:12:09.211Z,21.75
2017-07-06T00:14:37.566Z,21.65
2017-07-06T00:17:05.979Z,21.63
2017-07-06T00:19:34.744Z,21.63
2017-07-06T00:22:03.073Z,21.48
2017-07-06T00:24:31.406Z,21.24
2017-07-06T00:27:00.399Z,21.26
2017-07-06T00:29:28.752Z,21.26
2017-07-06T00:31:57.873Z,21.38
2017-07-06T00:34:26.632Z,21.31
2017-07-06T00:36:55.687Z,21.29
2017-07-06T00:39:24.073Z,21.22
2017-07-06T00:41:52.779Z,21.40
2017-07-06T00:44:21.147Z,21.36
2017-07-06T00:46:49.495Z,21.39
2017-07-06T00:49:18.194Z,21.50
2017-07-06T00:51:46.540Z,21.55
2017-07-06T00:54:15.642Z,21.53
2017-07-06T00:56:44.336Z,21.44
2017-07-06T00:59:12.682Z,21.42
2017-07-06T01:01:41.058Z,21.53
2017-07-06T01:04:09.733Z,21.34
2017-07-06T01:06:38.091Z,21.47
2017-07-06T01:09:06.421Z,21.41
2017-07-06T01:11:35.140Z,21.40
2017-07-06T01:14:03.491Z,21.20
2017-07-06T01:16:32.604Z,21.13
2017-07-06T01:19:01.393Z,21.14
2017-07-06T01:21:29.766Z,21.10
2017-07-06T01:23:58.137Z,21.08
2017-07-06T01:26:27.023Z,21.06
2017-07-06T01:28:55.366Z,20.95
2017-07-06T01:31:23.713Z,20.98
2017-07-06T01:33:52.559Z,20.94
2017-07-06T01:36:21.690Z,20.97
2017-07-06T01:38:50.000Z,20.81
2017-07-06T01:41:18.629Z,20.76
2017-07-06T01:43:47.731Z,20.71
2017-07-06T01:46:16.082Z,20.63
2017-07-06T01:48:45.003Z,20.69
2017-07-06T01:51:13.321Z,20.54
2017-07-06T01:53:41.653Z,20.47
2017-07-06T01:56:11.380Z,20.45
2017-07-06T01:58:39.740Z,20.35
2017-07-06T02:01:08.103Z,20.45
2017-07-06T02:03:36.926Z,20.47
2017-07-06T02:06:05.284Z,20.42
2017-07-06T02:08:34.410Z,20.41
2017-07-06T02:11:03.394Z,20.35
2017-07-06T02:13:31.756Z,20.24
2017-07-06T02:16:00.113Z,20.25
2017-07-06T02:18:28.871Z,20.25
2017-07-06T02:20:57.213Z,20.24
2017-07-06T02:23:25.572Z,20.17
2017-07-06T02:25:54.483Z,20.24
2017-07-06T02:28:22.871Z,20.36
2017-07-06T02:30:51.976Z,20.36
2017-07-06T02:33:20.647Z,20.30
2017-07-06T02:35:48.993Z,20.12
2017-07-06T02:38:17.478Z,20.11
2017-07-06T02:40:46.637Z,20.03
2017-07-06T02:43:14.969Z,19.89
2017-07-06T02:45:43.312Z,19.99
2017-07-06T02:48:11.947Z,19.83
2017-07-06T02:50:40.292Z,19.96
2017-07-06T02:53:08.638Z,20.08
2017-07-06T02:55:37.301Z,20.15
2017-07-06T02:58:05.642Z,20.11
2017-07-06T03:00:34.762Z,20.09
2017-07-06T03:03:03.808Z,20.06
2017-07-06T03:05:32.151Z,19.96
2017-07-06T03:08:00.498Z,19.90
2017-07-06T03:10:29.410Z,19.92
2017-07-06T03:12:57.764Z,20.02
2017-07-06T03:15:26.114Z,20.00
2017-07-06T03:17:54.795Z,19.99
2017-07-06T03:20:23.190Z,19.95
2017-07-06T03:22:51.554Z,19.92
2017-07-06T03:25:20.511Z,19.64
2017-07-06T03:27:48.900Z,19.84
2017-07-06T03:30:17.263Z,19.88
2017-07-06T03:32:46.164Z,19.89
2017-07-06T03:35:14.517Z,19.92
2017-07-06T03:37:43.643Z,19.89
2017-07-06T03:40:12.562Z,19.83
2017-07-06T03:42:40.917Z,19.94
2017-07-06T03:45:09.311Z,19.89
2017-07-06T03:47:38.316Z,19.77
2017-07-06T03:50:06.681Z,19.86
2017-07-06T03:52:35.028Z,20.03
2017-07-06T03:55:03.675Z,19.92
2017-07-06T03:57:32.009Z,20.07
2017-07-06T04:00:00.337Z,20.09
2017-07-06T04:02:29.001Z,20.01
2017-07-06T04:04:57.356Z,20.24
2017-07-06T04:07:25.702Z,20.41
2017-07-06T04:09:54.609Z,20.41
2017-07-06T04:12:22.943Z,20.38
2017-07-06T04:14:51.283Z,20.22
2017-07-06T04:17:19.953Z,20.09
2017-07-06T04:19:48.304Z,20.04
2017-07-06T04:22:16.637Z,20.13
2017-07-06T04:24:45.486Z,20.10
2017-07-06T04:27:13.836Z,20.14
2017-07-06T04:29:42.162Z,20.08
2017-07-06T04:32:11.135Z,20.11
2017-07-06T04:34:39.474Z,20.31
2017-07-06T04:37:07.804Z,20.39
2017-07-06T04:39:36.484Z,20.42
2017-07-06T04:42:05.391Z,20.36
2017-07-06T04:44:33.735Z,20.13
2017-07-06T04:47:02.454Z,20.25
2017-07-06T04:49:30.789Z,20.46
2017-07-06T04:51:59.131Z,20.61
2017-07-06T04:54:28.145Z,20.68
2017-07-06T04:56:56.496Z,20.80
2017-07-06T04:59:25.809Z,20.69
2017-07-06T05:01:54.579Z,20.71
2017-07-06T05:04:22.915Z,20.89
2017-07-06T05:06:51.249Z,20.89
2017-07-06T05:09:19.911Z,20.87
2017-07-06T05:11:48.255Z,20.82
2017-07-06T05:14:16.619Z,21.11
2017-07-06T05:16:45.441Z,21.12
2017-07-06T05:19:13.775Z,21.28
2017-07-06T05:21:42.110Z,21.32
2017-07-06T05:24:11.731Z,21.41
2017-07-06T05:26:40.063Z,21.38
2017-07-06T05:29:08.409Z,21.28
2017-07-06T05:31:37.044Z,21.05
2017-07-06T05:34:05.361Z,21.13
2017-07-06T05:36:33.691Z,20.99
2017-07-06T05:39:02.640Z,21.24
2017-07-06T05:41:30.974Z,21.42
2017-07-06T05:44:00.073Z,21.79
2017-07-06T05:46:28.759Z,21.91
2017-07-06T05:48:57.851Z,21.95
2017-07-06T05:51:26.958Z,22.10
2017-07-06T05:53:56.348Z,22.35
2017-07-06T05:56:24.695Z,22.29
2017-07-06T05:58:53.036Z,22.58
2017-07-06T06:01:22.234Z,22.79
2017-07-06T06:03:50.583Z,22.68
2017-07-06T06:06:18.903Z,22.79
2017-07-06T06:08:47.562Z,22.78
2017-07-06T06:11:15.897Z,22.69
2017-07-06T06:13:44.231Z,22.82
2017-07-06T06:16:12.868Z,23.07
2017-07-06T06:18:41.211Z,23.14
2017-07-06T06:21:09.547Z,23.07
2017-07-06T06:23:39.390Z,23.16
2017-07-06T06:26:07.733Z,23.19
2017-07-06T06:28:36.087Z,23.42
2017-07-06T06:31:04.840Z,23.44
2017-07-06T06:33:33.176Z,23.57
2017-07-06T06:36:01.507Z,24.05
2017-07-06T06:38:30.252Z,24.16
2017-07-06T06:40:58.617Z,23.92
2017-07-06T06:43:26.939Z,23.70
2017-07-06T06:45:55.738Z,23.79
2017-07-06T06:48:24.074Z,24.08
2017-07-06T06:50:52.429Z,24.18
2017-07-06T06:53:21.072Z,24.35
2017-07-06T06:55:49.435Z,24.35
